Time;durP1;ratioP1;P1;durP2;ratioP2;P2;SDS_P1;SDS_P2;PMS_P1;PMS_P2;Temp;Humidity;BMP_temperature;BMP_pressure;BME280_temperature;BME280_humidity;BME280_pressure;Samples;Min_cycle;Max_cycle;Signal;HPM_P1;HPM_P2
2023/07/20 00:02:08;;;;;;;25.83;24.43;;;16.10;99.90;;;;;;4419085;32;20143;-59
2023/07/20 00:04:35;;;;;;;27.53;26.17;;;16.00;99.90;;;;;;4419660;32;20139;-60
2023/07/20 00:07:02;;;;;;;23.30;21.97;;;16.00;99.90;;;;;;4417812;32;20207;-60
2023/07/20 00:09:30;;;;;;;24.97;23.63;;;16.00;99.90;;;;;;4418554;32;20151;-58
2023/07/20 00:11:59;;;;;;;22.63;21.43;;;16.00;99.90;;;;;;4419374;32;20567;-58
2023/07/20 00:14:26;;;;;;;20.47;19.57;;;16.10;99.90;;;;;;4411727;32;20211;-57
2023/07/20 00:16:56;;;;;;;22.63;21.60;;;16.10;99.90;;;;;;4406530;32;20283;-58
2023/07/20 00:19:23;;;;;;;21.87;20.67;;;15.90;99.90;;;;;;4407071;32;20144;-58
2023/07/20 00:21:50;;;;;;;20.40;19.37;;;16.00;99.90;;;;;;4400294;32;20182;-56
2023/07/20 00:24:17;;;;;;;23.53;22.03;;;16.00;99.90;;;;;;4418410;32;20186;-58
2023/07/20 00:26:45;;;;;;;19.83;18.80;;;15.90;99.90;;;;;;4404754;32;20182;-59
2023/07/20 00:29:12;;;;;;;25.07;23.87;;;15.80;99.90;;;;;;4409079;32;20606;-59
2023/07/20 00:31:39;;;;;;;23.43;22.33;;;15.70;99.90;;;;;;4410395;32;20143;-59
2023/07/20 00:34:07;;;;;;;24.77;23.60;;;15.80;99.90;;;;;;4402466;32;20176;-57
2023/07/20 00:36:34;;;;;;;26.50;25.27;;;15.70;99.90;;;;;;4398981;32;20144;-58
2023/07/20 00:39:01;;;;;;;26.47;25.20;;;15.60;99.90;;;;;;4403020;32;20198;-58
2023/07/20 00:41:29;;;;;;;27.37;25.77;;;15.60;99.90;;;;;;4402956;32;20187;-59
2023/07/20 00:43:56;;;;;;;20.97;19.77;;;15.70;99.90;;;;;;4406680;32;20144;-57
2023/07/20 00:46:25;;;;;;;21.03;19.83;;;15.80;99.90;;;;;;4415826;32;20166;-58
2023/07/20 00:48:53;;;;;;;21.87;20.87;;;15.80;99.90;;;;;;4400487;32;20139;-58
2023/07/20 00:51:22;;;;;;;21.23;20.03;;;15.90;99.90;;;;;;4412750;32;20135;-55
2023/07/20 00:53:49;;;;;;;17.80;17.00;;;16.00;99.90;;;;;;4405286;32;20219;-55
2023/07/20 00:56:16;;;;;;;21.80;20.83;;;15.90;99.90;;;;;;4405717;32;20236;-57
2023/07/20 00:58:44;;;;;;;18.60;17.70;;;15.80;99.90;;;;;;4414107;32;20156;-58
2023/07/20 01:01:11;;;;;;;18.50;17.60;;;15.80;99.90;;;;;;4413024;32;20155;-59
2023/07/20 01:03:38;;;;;;;17.47;16.57;;;15.70;99.90;;;;;;4418705;32;20148;-58
2023/07/20 01:06:12;;;;;;;17.20;16.40;;;15.60;99.90;;;;;;4408217;32;20163;-58
2023/07/20 01:08:48;;;;;;;18.73;17.93;;;15.50;99.90;;;;;;4404178;32;20199;-59
2023/07/20 01:11:24;;;;;;;19.23;18.43;;;15.40;99.90;;;;;;4411449;32;20147;-58
2023/07/20 01:13:51;;;;;;;21.03;20.17;;;15.40;99.90;;;;;;4412532;32;20139;-58
2023/07/20 01:16:18;;;;;;;17.57;16.77;;;15.30;99.90;;;;;;4400237;32;20233;-59
2023/07/20 01:18:45;;;;;;;18.07;17.27;;;15.30;99.90;;;;;;4412128;32;20147;-57
2023/07/20 01:21:19;;;;;;;18.10;17.30;;;15.30;99.90;;;;;;4405684;32;20147;-57
2023/07/20 01:24:17;;;;;;;17.17;16.30;;;15.30;99.90;;;;;;4405951;32;20143;-59
2023/07/20 01:27:20;;;;;;;17.10;16.37;;;15.20;99.90;;;;;;4371567;32;20174;-55
2023/07/20 01:30:09;;;;;;;16.97;16.17;;;15.20;99.90;;;;;;4394227;32;20227;-57
2023/07/20 01:32:39;;;;;;;17.13;16.37;;;15.20;99.90;;;;;;4410603;32;20169;-55
2023/07/20 01:35:07;;;;;;;19.17;18.30;;;15.10;99.90;;;;;;4406646;32;20472;-57
2023/07/20 01:37:35;;;;;;;19.13;18.33;;;15.10;99.90;;;;;;4402863;32;20183;-58
2023/07/20 01:40:03;;;;;;;18.47;17.67;;;15.10;99.90;;;;;;4407703;32;20446;-61
2023/07/20 01:42:30;;;;;;;19.17;18.17;;;15.00;99.90;;;;;;4416321;32;20159;-59
2023/07/20 01:44:57;;;;;;;20.17;19.27;;;14.90;99.90;;;;;;4410667;32;20214;-60
2023/07/20 01:47:24;;;;;;;20.97;20.07;;;14.90;99.90;;;;;;4405885;32;20175;-58
2023/07/20 01:49:53;;;;;;;22.40;21.37;;;14.90;99.90;;;;;;4406677;32;20144;-57
2023/07/20 01:52:20;;;;;;;20.17;19.33;;;14.90;99.90;;;;;;4398697;32;20142;-58
2023/07/20 01:54:47;;;;;;;18.20;17.40;;;14.80;99.90;;;;;;4419775;32;20208;-57
2023/07/20 01:57:14;;;;;;;20.50;19.60;;;14.80;99.90;;;;;;4406163;32;20167;-58
2023/07/20 01:59:41;;;;;;;21.63;20.67;;;14.80;99.90;;;;;;4401381;32;20140;-56
2023/07/20 02:02:09;;;;;;;19.63;18.73;;;14.70;99.90;;;;;;4400007;32;20205;-58
2023/07/20 02:04:35;;;;;;;22.97;21.97;;;14.70;99.90;;;;;;4406746;32;20178;-56
2023/07/20 02:07:04;;;;;;;22.10;21.10;;;14.70;99.90;;;;;;4404843;32;20191;-58
2023/07/20 02:09:31;;;;;;;20.57;19.47;;;14.60;99.90;;;;;;4405289;32;20172;-56
2023/07/20 02:11:58;;;;;;;20.73;19.73;;;14.70;99.90;;;;;;4408317;32;20587;-59
2023/07/20 02:14:24;;;;;;;21.20;20.23;;;14.60;99.90;;;;;;4413239;32;20152;-58
2023/07/20 02:16:52;;;;;;;22.73;21.73;;;14.60;99.90;;;;;;4406398;32;20172;-58
2023/07/20 02:19:19;;;;;;;22.00;21.07;;;14.50;99.90;;;;;;4402273;32;20185;-58
2023/07/20 02:21:46;;;;;;;20.03;19.20;;;14.60;99.90;;;;;;4421335;32;20143;-56
2023/07/20 02:24:17;;;;;;;22.37;21.37;;;14.50;99.90;;;;;;4421033;32;20209;-56
2023/07/20 02:26:43;;;;;;;23.97;22.87;;;14.50;99.90;;;;;;4399763;32;20495;-56
2023/07/20 02:29:11;;;;;;;20.87;19.97;;;14.50;99.90;;;;;;4399338;32;20156;-58
2023/07/20 02:31:39;;;;;;;22.93;21.83;;;14.50;99.90;;;;;;4412058;32;20701;-57
2023/07/20 02:34:06;;;;;;;22.60;21.60;;;14.50;99.90;;;;;;4410929;32;20173;-56
2023/07/20 02:36:33;;;;;;;25.03;23.73;;;14.40;99.90;;;;;;4407884;32;20233;-57
2023/07/20 02:39:04;;;;;;;22.93;21.93;;;14.40;99.90;;;;;;4406525;32;20211;-55
2023/07/20 02:41:34;;;;;;;23.33;22.27;;;14.40;99.90;;;;;;4414063;32;20209;-56
2023/07/20 02:44:03;;;;;;;22.20;21.10;;;14.30;99.90;;;;;;4410733;32;20163;-59
2023/07/20 02:46:30;;;;;;;25.33;24.17;;;14.30;99.90;;;;;;4398602;32;20160;-58
2023/07/20 02:48:57;;;;;;;22.20;21.20;;;14.30;99.90;;;;;;4411424;32;20174;-54
2023/07/20 02:51:24;;;;;;;22.50;21.50;;;14.30;99.90;;;;;;4408907;32;20151;-57
2023/07/20 02:53:51;;;;;;;22.93;21.93;;;14.30;99.90;;;;;;4409680;32;20222;-58
2023/07/20 02:56:18;;;;;;;19.73;18.73;;;14.30;99.90;;;;;;4407895;32;20201;-58
2023/07/20 02:58:46;;;;;;;24.00;22.90;;;14.20;99.90;;;;;;4407008;32;20162;-57
2023/07/20 03:01:15;;;;;;;23.30;22.30;;;14.20;99.90;;;;;;4407913;32;20166;-58
2023/07/20 03:03:46;;;;;;;22.73;21.73;;;14.20;99.90;;;;;;4401855;32;20596;-55
2023/07/20 03:06:15;;;;;;;22.97;21.87;;;14.20;99.90;;;;;;4407043;32;20144;-57
2023/07/20 03:08:47;;;;;;;22.93;21.87;;;14.20;99.90;;;;;;4411228;32;20148;-57
2023/07/20 03:11:14;;;;;;;23.47;22.37;;;14.10;99.90;;;;;;4413545;32;20144;-58
2023/07/20 03:13:42;;;;;;;22.53;21.53;;;14.10;99.90;;;;;;4417298;32;20187;-59
2023/07/20 03:16:11;;;;;;;20.50;19.40;;;14.00;99.90;;;;;;4420661;32;20171;-57
2023/07/20 03:18:38;;;;;;;19.53;18.53;;;14.00;99.90;;;;;;4417919;32;20148;-56
2023/07/20 03:21:05;;;;;;;20.87;19.83;;;14.00;99.90;;;;;;4418222;32;20162;-56
2023/07/20 03:23:32;;;;;;;20.13;19.13;;;13.90;99.90;;;;;;4413475;32;20148;-56
2023/07/20 03:25:59;;;;;;;23.67;22.57;;;13.90;99.90;;;;;;4419966;32;20532;-56
2023/07/20 03:28:26;;;;;;;21.23;20.17;;;13.90;99.90;;;;;;4419486;32;20496;-57
2023/07/20 03:30:55;;;;;;;23.17;21.83;;;13.90;99.90;;;;;;4420362;32;20147;-58
2023/07/20 03:33:25;;;;;;;22.53;21.40;;;13.90;99.90;;;;;;4410989;32;20224;-57
2023/07/20 03:35:52;;;;;;;21.47;20.30;;;13.90;99.90;;;;;;4421227;32;20204;-58
2023/07/20 03:38:19;;;;;;;22.20;21.10;;;13.80;99.90;;;;;;4403427;32;20183;-56
2023/07/20 03:40:53;;;;;;;20.93;19.83;;;13.80;99.90;;;;;;4399020;32;20201;-54
2023/07/20 03:43:20;;;;;;;21.40;20.40;;;13.80;99.90;;;;;;4401941;32;20614;-55
2023/07/20 03:45:47;;;;;;;21.00;20.00;;;13.80;99.90;;;;;;4408762;32;20198;-54
2023/07/20 03:48:16;;;;;;;23.40;22.30;;;13.80;99.90;;;;;;4410933;32;20575;-59
2023/07/20 03:50:45;;;;;;;20.73;19.73;;;13.70;99.90;;;;;;4408424;32;20481;-56
2023/07/20 03:53:12;;;;;;;19.90;18.90;;;13.80;99.90;;;;;;4402502;32;20152;-57
2023/07/20 03:55:41;;;;;;;20.10;19.03;;;13.70;99.90;;;;;;4406878;32;20144;-56
2023/07/20 03:58:08;;;;;;;23.83;22.53;;;13.80;99.90;;;;;;4405748;32;20487;-56
2023/07/20 04:00:36;;;;;;;22.00;20.87;;;13.80;99.90;;;;;;4394593;32;20147;-58
2023/07/20 04:03:03;;;;;;;24.53;23.33;;;13.70;99.90;;;;;;4418324;32;20147;-56
2023/07/20 04:05:31;;;;;;;22.17;21.07;;;13.80;99.90;;;;;;4412206;32;20190;-57
2023/07/20 04:08:00;;;;;;;22.60;21.40;;;13.80;99.90;;;;;;4421289;32;21101;-59
2023/07/20 04:10:27;;;;;;;22.17;21.07;;;13.80;99.90;;;;;;4419646;32;20483;-59
2023/07/20 04:12:55;;;;;;;23.13;22.00;;;13.80;99.90;;;;;;4412178;32;20162;-57
2023/07/20 04:15:22;;;;;;;23.23;21.93;;;13.90;99.90;;;;;;4410420;32;20520;-58
2023/07/20 04:17:49;;;;;;;21.17;20.07;;;13.90;99.90;;;;;;4420217;32;20587;-57
2023/07/20 04:20:17;;;;;;;20.47;19.37;;;13.90;99.90;;;;;;4419568;32;20168;-57
2023/07/20 04:22:44;;;;;;;21.73;20.53;;;13.90;99.90;;;;;;4419385;32;20166;-57
2023/07/20 04:25:12;;;;;;;18.80;17.87;;;14.00;99.90;;;;;;4413536;32;20160;-57
2023/07/20 04:27:39;;;;;;;20.67;19.57;;;14.00;99.90;;;;;;4403574;32;20143;-55
2023/07/20 04:30:09;;;;;;;23.73;22.50;;;14.00;99.90;;;;;;4418938;32;20646;-57
2023/07/20 04:32:35;;;;;;;23.80;22.43;;;14.10;99.90;;;;;;4418426;32;20177;-56
2023/07/20 04:35:06;;;;;;;22.00;20.90;;;14.20;99.90;;;;;;4419690;32;20199;-57
2023/07/20 04:37:33;;;;;;;23.93;22.57;;;14.30;99.90;;;;;;4412621;32;20425;-55
2023/07/20 04:40:03;;;;;;;24.37;23.00;;;14.50;99.90;;;;;;4414053;32;20151;-55
2023/07/20 04:42:31;;;;;;;26.73;25.27;;;14.60;99.90;;;;;;4409557;32;20587;-57
2023/07/20 04:44:58;;;;;;;41.20;39.20;;;15.10;99.90;;;;;;4412811;32;20587;-54
2023/07/20 04:47:25;;;;;;;52.70;50.27;;;16.70;99.90;;;;;;4407871;32;20144;-56
2023/07/20 04:49:52;;;;;;;32.93;31.40;;;19.20;99.90;;;;;;4410949;32;20235;-59
2023/07/20 04:52:21;;;;;;;20.10;19.10;;;22.10;99.90;;;;;;4393461;32;20144;-56
2023/07/20 04:54:48;;;;;;;15.33;14.53;;;24.10;99.90;;;;;;4411000;32;20164;-57
2023/07/20 04:57:15;;;;;;;11.80;11.30;;;25.80;99.90;;;;;;4400096;32;20163;-57
2023/07/20 04:59:43;;;;;;;19.80;18.70;;;27.90;99.90;;;;;;4403892;32;20144;-57
2023/07/20 05:02:10;;;;;;;29.80;28.47;;;29.40;97.10;;;;;;4406502;32;20175;-56
2023/07/20 05:04:37;;;;;;;38.70;37.00;;;30.60;94.60;;;;;;4416682;32;20148;-58
2023/07/20 05:07:04;;;;;;;52.53;50.22;;;31.50;93.20;;;;;;4413933;32;20163;-57
2023/07/20 05:09:31;;;;;;;50.33;48.13;;;32.50;90.60;;;;;;4417842;32;20178;-58
2023/07/20 05:11:58;;;;;;;43.87;41.90;;;33.30;88.10;;;;;;4409905;32;20219;-57
2023/07/20 05:14:25;;;;;;;77.62;74.35;;;33.70;87.30;;;;;;4411356;32;20588;-59
2023/07/20 05:16:53;;;;;;;105.78;101.62;;;34.40;83.60;;;;;;4405834;32;20170;-59
2023/07/20 05:19:23;;;;;;;141.75;135.37;;;35.00;82.70;;;;;;4404566;32;20143;-58
2023/07/20 05:21:49;;;;;;;223.18;214.43;;;34.90;81.50;;;;;;4407145;32;20190;-58
2023/07/20 05:24:16;;;;;;;181.77;174.45;;;35.00;79.50;;;;;;4407071;32;20564;-58
2023/07/20 05:26:43;;;;;;;215.55;207.10;;;35.20;78.80;;;;;;4408458;32;20228;-56
2023/07/20 05:29:10;;;;;;;236.23;227.13;;;34.50;79.30;;;;;;4406334;32;20476;-57
2023/07/20 05:31:37;;;;;;;259.55;249.43;;;31.60;80.70;;;;;;4406472;32;20178;-58
2023/07/20 05:34:07;;;;;;;219.15;210.68;;;28.80;85.60;;;;;;4408492;32;20163;-58
2023/07/20 05:36:34;;;;;;;166.85;160.32;;;26.20;92.70;;;;;;4408078;32;20598;-59
2023/07/20 05:39:01;;;;;;;111.28;106.85;;;24.40;98.00;;;;;;4407780;32;20580;-55
2023/07/20 05:41:28;;;;;;;91.43;87.65;;;23.20;99.90;;;;;;4406118;32;20194;-55
2023/07/20 05:43:57;;;;;;;68.05;65.03;;;22.00;99.90;;;;;;4408347;32;20160;-58
2023/07/20 05:46:24;;;;;;;57.30;55.00;;;21.30;99.90;;;;;;4404601;32;20266;-55
2023/07/20 05:48:51;;;;;;;50.27;48.10;;;20.60;99.90;;;;;;4406492;32;20222;-56
2023/07/20 05:51:19;;;;;;;41.03;39.20;;;20.30;99.90;;;;;;4405064;32;20144;-58
2023/07/20 05:53:46;;;;;;;40.80;38.93;;;19.80;99.90;;;;;;4406026;32;20155;-55
2023/07/20 05:56:14;;;;;;;42.23;40.53;;;19.60;99.90;;;;;;4407335;32;20211;-57
2023/07/20 05:58:43;;;;;;;35.33;33.77;;;19.30;99.90;;;;;;4407279;32;20205;-55
2023/07/20 06:01:10;;;;;;;30.47;29.23;;;18.90;99.90;;;;;;4406262;32;20479;-57
2023/07/20 06:03:37;;;;;;;25.27;24.10;;;18.70;99.90;;;;;;4405484;32;20595;-55
2023/07/20 06:06:05;;;;;;;27.60;26.43;;;18.50;99.90;;;;;;4405328;32;20164;-57
2023/07/20 06:08:33;;;;;;;29.33;28.13;;;18.40;99.90;;;;;;4413987;32;20572;-59
2023/07/20 06:11:01;;;;;;;26.80;25.67;;;18.50;99.90;;;;;;4410141;32;20201;-57
2023/07/20 06:13:28;;;;;;;25.60;24.53;;;18.40;99.90;;;;;;4407590;32;20222;-55
2023/07/20 06:15:55;;;;;;;23.17;22.17;;;18.00;99.90;;;;;;4409607;32;20591;-57
2023/07/20 06:18:30;;;;;;;22.40;21.40;;;17.80;99.90;;;;;;4413495;32;20496;-58
2023/07/20 06:20:57;;;;;;;19.00;18.10;;;17.80;99.90;;;;;;4406874;32;20226;-56
2023/07/20 06:23:23;;;;;;;19.07;18.17;;;17.90;99.90;;;;;;4408325;32;20194;-53
2023/07/20 06:25:52;;;;;;;20.40;19.57;;;18.00;99.90;;;;;;4406854;32;22284;-56
2023/07/20 06:28:19;;;;;;;19.77;18.97;;;18.20;99.90;;;;;;4410534;32;20148;-57
2023/07/20 06:30:50;;;;;;;20.23;19.43;;;18.20;99.90;;;;;;4416921;32;20519;-57
2023/07/20 06:33:17;;;;;;;22.93;21.93;;;18.00;99.90;;;;;;4402534;32;20198;-56
2023/07/20 06:35:44;;;;;;;19.80;18.90;;;18.20;99.90;;;;;;4405630;32;20140;-56
2023/07/20 06:38:11;;;;;;;19.40;18.50;;;18.30;99.90;;;;;;4404861;32;20223;-58
2023/07/20 06:40:38;;;;;;;21.53;20.53;;;18.10;99.90;;;;;;4405122;32;20152;-57
2023/07/20 06:43:07;;;;;;;20.07;19.27;;;18.30;99.90;;;;;;4422042;32;20163;-56
2023/07/20 06:45:34;;;;;;;19.80;19.00;;;18.40;99.90;;;;;;4409386;32;20144;-55
2023/07/20 06:48:02;;;;;;;19.60;18.83;;;18.30;99.90;;;;;;4405399;32;20182;-57
2023/07/20 06:50:29;;;;;;;20.83;19.90;;;18.40;99.90;;;;;;4413161;32;20203;-56
2023/07/20 06:52:58;;;;;;;20.50;19.70;;;18.60;99.90;;;;;;4405103;32;20222;-57
2023/07/20 06:55:25;;;;;;;19.50;18.40;;;18.40;99.90;;;;;;4405466;32;20144;-59
2023/07/20 06:57:52;;;;;;;20.33;19.53;;;18.40;99.90;;;;;;4406580;32;20221;-55
2023/07/20 07:00:21;;;;;;;18.60;17.87;;;18.40;99.90;;;;;;4407606;32;20178;-58
2023/07/20 07:02:48;;;;;;;20.23;19.43;;;18.60;99.90;;;;;;4405892;32;20171;-58
2023/07/20 07:05:15;;;;;;;19.60;18.70;;;19.20;99.90;;;;;;4404745;32;20175;-57
2023/07/20 07:07:42;;;;;;;21.30;20.47;;;18.90;99.90;;;;;;4403845;32;20148;-56
2023/07/20 07:10:12;;;;;;;19.70;18.90;;;19.30;99.90;;;;;;4404685;32;20148;-58
2023/07/20 07:12:39;;;;;;;19.53;18.73;;;19.80;99.90;;;;;;4405194;32;20140;-55
2023/07/20 07:15:10;;;;;;;23.83;22.93;;;20.00;99.90;;;;;;4409604;32;20478;-58
2023/07/20 07:17:39;;;;;;;26.23;25.20;;;20.30;99.90;;;;;;4419444;32;20604;-55
2023/07/20 07:20:09;;;;;;;25.23;24.17;;;20.40;99.90;;;;;;4420512;32;20144;-55
2023/07/20 07:22:36;;;;;;;26.40;25.17;;;21.00;99.90;;;;;;4419227;32;20272;-55
2023/07/20 07:25:03;;;;;;;27.63;26.53;;;21.50;99.90;;;;;;4416920;32;20481;-57
2023/07/20 07:27:30;;;;;;;29.00;27.80;;;22.40;99.90;;;;;;4418358;32;20190;-53
2023/07/20 07:29:57;;;;;;;32.27;31.03;;;22.70;99.90;;;;;;4419686;32;20477;-57
2023/07/20 07:32:25;;;;;;;34.83;33.43;;;22.80;99.90;;;;;;4421539;32;20493;-55
2023/07/20 07:34:55;;;;;;;39.60;38.00;;;22.70;99.90;;;;;;4419493;32;20194;-58
2023/07/20 07:37:24;;;;;;;46.53;44.37;;;22.40;99.90;;;;;;4420269;32;20226;-56
2023/07/20 07:39:51;;;;;;;44.83;42.93;;;21.90;99.90;;;;;;4420659;32;20591;-54
2023/07/20 07:42:18;;;;;;;44.07;42.13;;;21.50;99.90;;;;;;4417339;32;20164;-58
2023/07/20 07:44:45;;;;;;;42.80;41.10;;;21.20;99.90;;;;;;4417856;32;20219;-57
2023/07/20 07:47:12;;;;;;;45.73;43.93;;;20.90;99.90;;;;;;4420056;32;20614;-57
2023/07/20 07:49:39;;;;;;;30.87;29.67;;;20.50;99.90;;;;;;4418517;32;20143;-54
2023/07/20 07:52:10;;;;;;;60.72;58.15;;;23.70;99.90;;;;;;4419047;32;20178;-54
2023/07/20 07:54:37;;;;;;;97.80;94.00;;;27.80;93.00;;;;;;4417914;32;20163;-56
2023/07/20 07:57:04;;;;;;;93.68;90.05;;;27.40;91.60;;;;;;4419158;32;20161;-57
2023/07/20 07:59:36;;;;;;;135.02;129.80;;;31.90;90.40;;;;;;4419110;32;20174;-58
2023/07/20 08:02:03;;;;;;;144.13;138.57;;;38.40;76.40;;;;;;4419240;32;20179;-57
2023/07/20 08:04:30;;;;;;;59.42;57.08;;;43.30;60.70;;;;;;4418382;32;20214;-57
2023/07/20 08:06:57;;;;;;;44.03;42.33;;;46.40;56.70;;;;;;4418823;32;20186;-57
2023/07/20 08:09:25;;;;;;;35.25;33.90;;;48.40;51.00;;;;;;4415609;32;20197;-57
2023/07/20 08:11:55;;;;;;;31.80;30.50;;;48.30;46.20;;;;;;4418546;32;20538;-57
2023/07/20 08:14:22;;;;;;;37.17;35.78;;;49.90;45.60;;;;;;4417972;32;20155;-57
2023/07/20 08:16:48;;;;;;;33.60;32.30;;;51.40;44.50;;;;;;4417172;32;20174;-59
2023/07/20 08:19:15;;;;;;;28.98;27.87;;;51.80;43.00;;;;;;4416238;32;20147;-54
2023/07/20 08:21:42;;;;;;;36.00;34.60;;;52.70;41.40;;;;;;4419381;32;20543;-57
2023/07/20 08:24:09;;;;;;;30.83;29.63;;;53.30;40.80;;;;;;4413875;32;20603;-57
2023/07/20 08:26:37;;;;;;;32.75;31.30;;;53.60;39.20;;;;;;4417717;32;20178;-57
2023/07/20 08:29:04;;;;;;;25.77;24.70;;;51.70;39.30;;;;;;4418100;32;20156;-57
2023/07/20 08:31:31;;;;;;;37.88;36.38;;;52.60;37.30;;;;;;4416531;32;20140;-58
2023/07/20 08:33:58;;;;;;;37.83;36.35;;;52.10;37.50;;;;;;4415489;32;20218;-59
2023/07/20 08:36:26;;;;;;;37.10;35.55;;;53.10;36.90;;;;;;4416829;32;20144;-59
2023/07/20 08:38:52;;;;;;;42.75;40.95;;;53.10;36.40;;;;;;4418061;32;20273;-60
2023/07/20 08:41:20;;;;;;;36.95;35.45;;;53.80;36.70;;;;;;4422046;32;20178;-59
2023/07/20 08:43:49;;;;;;;40.63;39.03;;;53.70;36.10;;;;;;4421699;32;20159;-58
2023/07/20 08:46:17;;;;;;;38.85;37.30;;;54.10;35.70;;;;;;4421973;32;20165;-58
2023/07/20 08:48:45;;;;;;;36.63;35.22;;;54.30;35.10;;;;;;4419230;32;20519;-56
2023/07/20 08:51:13;;;;;;;30.58;29.33;;;54.10;34.80;;;;;;4420853;32;20188;-56
2023/07/20 08:53:40;;;;;;;47.00;45.15;;;52.10;34.30;;;;;;4418638;32;20222;-56
2023/07/20 08:56:10;;;;;;;39.25;37.70;;;52.40;34.70;;;;;;4419918;32;20166;-57
2023/07/20 08:58:38;;;;;;;44.42;42.72;;;51.50;33.90;;;;;;4421513;32;20147;-58
2023/07/20 09:01:07;;;;;;;38.78;37.08;;;52.60;34.10;;;;;;4421024;32;20166;-60
2023/07/20 09:03:34;;;;;;;39.22;37.67;;;53.60;34.10;;;;;;4420135;32;20166;-58
2023/07/20 09:06:01;;;;;;;38.97;37.47;;;54.10;33.90;;;;;;4419888;32;20296;-58
2023/07/20 09:08:28;;;;;;;38.50;37.00;;;54.50;33.30;;;;;;4415759;32;20166;-57
2023/07/20 09:10:55;;;;;;;45.00;43.05;;;53.10;33.70;;;;;;4420339;32;20166;-58
2023/07/20 09:13:22;;;;;;;50.83;48.83;;;52.40;34.50;;;;;;4418814;32;20156;-58
2023/07/20 09:15:54;;;;;;;40.08;38.42;;;53.00;34.00;;;;;;4419352;32;20166;-59
2023/07/20 09:18:27;;;;;;;39.67;38.10;;;52.80;32.90;;;;;;4416336;32;20587;-58
2023/07/20 09:20:54;;;;;;;44.92;43.15;;;53.30;33.20;;;;;;4415358;32;20509;-58
2023/07/20 09:23:31;;;;;;;44.30;42.50;;;53.30;33.10;;;;;;4416172;32;20156;-58
2023/07/20 09:25:58;;;;;;;42.97;41.28;;;53.70;33.10;;;;;;4417189;32;20445;-57
2023/07/20 09:28:25;;;;;;;58.42;56.08;;;53.80;32.90;;;;;;4419490;32;20584;-59
2023/07/20 09:30:52;;;;;;;90.15;86.65;;;49.70;33.60;;;;;;4419320;32;20170;-57
2023/07/20 09:33:20;;;;;;;95.75;92.03;;;49.00;33.70;;;;;;4417877;32;20214;-55
2023/07/20 09:35:48;;;;;;;115.97;111.47;;;50.00;33.30;;;;;;4418599;32;20146;-56
2023/07/20 09:38:15;;;;;;;110.50;106.20;;;50.00;33.70;;;;;;4421168;32;20147;-59
2023/07/20 09:40:43;;;;;;;126.38;121.43;;;50.90;33.40;;;;;;4421135;32;20171;-58
2023/07/20 09:43:10;;;;;;;147.73;141.85;;;51.10;33.60;;;;;;4420201;32;20190;-56
2023/07/20 09:45:41;;;;;;;173.82;167.05;;;49.50;33.60;;;;;;4418519;32;20190;-57
2023/07/20 09:48:09;;;;;;;269.33;258.90;;;46.40;34.00;;;;;;4418738;32;20156;-58
2023/07/20 09:50:42;;;;;;;335.75;322.42;;;42.60;36.00;;;;;;4418237;32;20162;-58
2023/07/20 09:53:13;;;;;;;437.23;419.00;;;39.50;37.40;;;;;;4422007;32;20148;-58
2023/07/20 09:55:41;;;;;;;497.70;476.27;;;36.10;40.50;;;;;;4422532;32;20144;-54
2023/07/20 09:58:09;;;;;;;510.52;488.20;;;33.60;42.50;;;;;;4421808;32;20163;-58
2023/07/20 10:00:37;;;;;;;542.65;518.37;;;31.70;44.50;;;;;;4423596;32;20198;-57
2023/07/20 10:03:05;;;;;;;537.75;514.20;;;30.30;46.70;;;;;;4419986;32;20178;-58
2023/07/20 10:05:35;;;;;;;501.15;479.67;;;29.20;47.30;;;;;;4420154;32;20166;-57
2023/07/20 10:08:04;;;;;;;505.50;483.67;;;28.30;48.20;;;;;;4421748;32;20166;-57
2023/07/20 10:10:35;;;;;;;511.67;489.70;;;27.90;50.00;;;;;;4420667;32;20166;-57
2023/07/20 10:13:03;;;;;;;507.80;485.95;;;27.50;50.50;;;;;;4421914;32;20143;-56
2023/07/20 10:15:35;;;;;;;504.95;483.40;;;27.20;52.10;;;;;;4423308;32;20159;-60
2023/07/20 10:18:13;;;;;;;503.83;482.20;;;26.70;52.20;;;;;;4421258;32;20148;-57
2023/07/20 10:20:42;;;;;;;519.85;497.58;;;26.50;53.40;;;;;;4417816;32;20606;-56
2023/07/20 10:23:09;;;;;;;502.58;481.40;;;26.80;54.20;;;;;;4419627;32;20197;-59
2023/07/20 10:25:39;;;;;;;506.37;484.90;;;26.80;52.80;;;;;;4419412;32;20499;-59
2023/07/20 10:28:07;;;;;;;488.45;468.08;;;27.30;52.80;;;;;;4418691;32;20147;-58
2023/07/20 10:30:35;;;;;;;499.58;478.60;;;27.10;52.20;;;;;;4419064;32;20179;-59
2023/07/20 10:33:03;;;;;;;500.98;479.98;;;26.80;52.70;;;;;;4416664;32;20591;-56
2023/07/20 10:35:30;;;;;;;487.70;467.35;;;27.10;53.30;;;;;;4419891;32;20587;-55
2023/07/20 10:38:02;;;;;;;500.05;478.85;;;27.10;53.40;;;;;;4420532;32;20156;-58
2023/07/20 10:40:33;;;;;;;489.05;468.42;;;27.20;53.50;;;;;;4419927;32;20230;-60
2023/07/20 10:43:04;;;;;;;494.48;473.92;;;26.80;53.60;;;;;;4421370;32;20163;-59
2023/07/20 10:45:40;;;;;;;494.67;473.73;;;26.70;54.40;;;;;;4421120;32;20155;-59
2023/07/20 10:48:14;;;;;;;487.25;467.17;;;26.10;56.40;;;;;;4421568;32;20227;-60
2023/07/20 10:50:41;;;;;;;468.58;449.33;;;25.90;55.40;;;;;;4418096;32;20253;-59
2023/07/20 10:53:13;;;;;;;473.25;453.73;;;25.80;56.70;;;;;;4418041;32;20144;-57
2023/07/20 10:55:39;;;;;;;466.65;447.30;;;25.70;56.90;;;;;;4421598;32;20169;-56
2023/07/20 10:58:12;;;;;;;468.75;449.83;;;25.50;55.80;;;;;;4421276;32;20527;-59
2023/07/20 11:00:56;;;;;;;488.65;468.20;;;25.60;55.40;;;;;;4422016;32;20609;-58
2023/07/20 11:03:31;;;;;;;442.58;424.83;;;26.10;56.70;;;;;;4406324;32;20153;-60
2023/07/20 11:05:58;;;;;;;445.55;427.73;;;27.00;54.70;;;;;;4406552;32;20154;-58
2023/07/20 11:08:42;;;;;;;441.62;423.77;;;27.70;53.60;;;;;;4413826;32;20151;-58
2023/07/20 11:11:26;;;;;;;447.50;429.48;;;28.10;53.60;;;;;;4421698;32;20167;-58
2023/07/20 11:13:58;;;;;;;450.80;432.70;;;28.30;53.10;;;;;;4421535;32;20154;-60
2023/07/20 11:16:44;;;;;;;445.88;427.90;;;28.60;54.20;;;;;;4421461;32;20135;-58
2023/07/20 11:19:18;;;;;;;451.77;433.62;;;28.60;51.70;;;;;;4421243;32;20163;-58
2023/07/20 11:21:47;;;;;;;453.83;435.37;;;28.60;52.30;;;;;;4421525;32;20151;-60
2023/07/20 11:24:14;;;;;;;447.55;429.45;;;28.80;52.40;;;;;;4423043;32;20468;-58
2023/07/20 11:26:45;;;;;;;448.60;430.50;;;28.80;51.70;;;;;;4421474;32;20143;-58
2023/07/20 11:29:13;;;;;;;451.48;433.15;;;28.80;52.60;;;;;;4421420;32;20147;-58
2023/07/20 11:31:42;;;;;;;449.60;431.02;;;29.00;53.40;;;;;;4421523;32;20204;-59
2023/07/20 11:34:11;;;;;;;454.60;436.20;;;28.80;53.10;;;;;;4410408;32;20202;-56
2023/07/20 11:36:40;;;;;;;443.35;425.35;;;28.20;53.40;;;;;;4417690;32;20157;-59
2023/07/20 11:39:09;;;;;;;451.33;433.12;;;27.30;53.90;;;;;;4418086;32;20563;-57
2023/07/20 11:41:36;;;;;;;441.55;423.85;;;26.30;55.80;;;;;;4417134;32;20572;-59
2023/07/20 11:44:03;;;;;;;440.75;423.13;;;25.80;55.40;;;;;;4419038;32;20152;-60
2023/07/20 11:46:31;;;;;;;455.77;437.30;;;24.90;56.80;;;;;;4419124;32;20139;-58
2023/07/20 11:49:00;;;;;;;450.02;431.73;;;24.60;58.50;;;;;;4422462;32;20173;-58
2023/07/20 11:51:28;;;;;;;474.85;455.33;;;24.80;58.70;;;;;;4419405;32;20511;-59
2023/07/20 11:53:56;;;;;;;458.23;439.63;;;25.20;59.30;;;;;;4417229;32;20139;-58
2023/07/20 11:56:23;;;;;;;459.23;440.62;;;25.40;58.40;;;;;;4418452;32;20157;-56
2023/07/20 11:58:50;;;;;;;461.12;442.48;;;25.30;58.90;;;;;;4414682;32;20166;-60
2023/07/20 12:01:20;;;;;;;456.33;437.88;;;25.60;58.90;;;;;;4417661;32;20166;-59
2023/07/20 12:03:49;;;;;;;463.25;444.33;;;25.90;58.50;;;;;;4414467;32;20169;-58
2023/07/20 12:06:16;;;;;;;430.80;413.52;;;26.20;59.40;;;;;;4418168;32;20159;-59
2023/07/20 12:08:44;;;;;;;468.70;449.58;;;26.10;59.20;;;;;;4419966;32;20222;-57
2023/07/20 12:11:12;;;;;;;431.92;414.63;;;25.80;60.40;;;;;;4418129;32;20587;-57
2023/07/20 12:13:40;;;;;;;440.52;422.83;;;25.60;59.30;;;;;;4415679;32;20452;-58
2023/07/20 12:16:14;;;;;;;441.02;422.92;;;25.50;59.40;;;;;;4418114;32;20151;-58
2023/07/20 12:18:42;;;;;;;436.73;419.25;;;25.60;60.00;;;;;;4418300;32;20198;-58
2023/07/20 12:21:11;;;;;;;455.65;437.27;;;25.60;59.80;;;;;;4416001;32;20611;-59
2023/07/20 12:23:40;;;;;;;448.58;430.55;;;25.60;58.90;;;;;;4418740;32;20533;-58
2023/07/20 12:26:12;;;;;;;434.10;416.73;;;25.00;59.00;;;;;;4415851;32;20147;-58
2023/07/20 12:28:42;;;;;;;418.02;401.42;;;24.90;60.50;;;;;;4419317;32;20552;-57